sensor_id;sensor_type;location;lat;lon;timestamp;P1;durP1;ratioP1;P2;durP2;ratioP2
73100;SDS011;61288;53.446;-2.266;2024-03-22T00:00:21;4.75;;;1.42;;
73100;SDS011;61288;53.446;-2.266;2024-03-22T00:02:47;2.45;;;0.93;;
73100;SDS011;61288;53.446;-2.266;2024-03-22T00:05:12;3.13;;;0.85;;
73100;SDS011;61288;53.446;-2.266;2024-03-22T00:07:38;2.92;;;0.85;;
73100;SDS011;61288;53.446;-2.266;2024-03-22T00:10:04;1.77;;;0.70;;
73100;SDS011;61288;53.446;-2.266;2024-03-22T00:12:31;1.10;;;0.73;;
73100;SDS011;61288;53.446;-2.266;2024-03-22T00:14:59;2.90;;;0.70;;
73100;SDS011;61288;53.446;-2.266;2024-03-22T00:17:24;1.95;;;0.95;;
73100;SDS011;61288;53.446;-2.266;2024-03-22T00:19:56;1.08;;;0.80;;
73100;SDS011;61288;53.446;-2.266;2024-03-22T00:22:21;2.72;;;0.90;;
73100;SDS011;61288;53.446;-2.266;2024-03-22T00:24:47;2.38;;;0.70;;
73100;SDS011;61288;53.446;-2.266;2024-03-22T00:27:12;2.55;;;1.00;;
73100;SDS011;61288;53.446;-2.266;2024-03-22T00:29:38;2.58;;;0.95;;
73100;SDS011;61288;53.446;-2.266;2024-03-22T00:32:04;2.22;;;0.90;;
73100;SDS011;61288;53.446;-2.266;2024-03-22T00:34:30;2.55;;;0.70;;
73100;SDS011;61288;53.446;-2.266;2024-03-22T00:36:55;2.03;;;0.90;;
73100;SDS011;61288;53.446;-2.266;2024-03-22T00:39:21;3.60;;;1.15;;
73100;SDS011;61288;53.446;-2.266;2024-03-22T00:41:46;2.55;;;1.00;;
73100;SDS011;61288;53.446;-2.266;2024-03-22T00:44:12;2.80;;;0.95;;
73100;SDS011;61288;53.446;-2.266;2024-03-22T00:46:39;5.00;;;1.05;;
73100;SDS011;61288;53.446;-2.266;2024-03-22T00:49:05;2.47;;;1.05;;
73100;SDS011;61288;53.446;-2.266;2024-03-22T00:51:31;2.15;;;1.08;;
73100;SDS011;61288;53.446;-2.266;2024-03-22T00:53:57;5.00;;;1.10;;
73100;SDS011;61288;53.446;-2.266;2024-03-22T00:56:22;3.40;;;0.98;;
73100;SDS011;61288;53.446;-2.266;2024-03-22T00:58:48;2.75;;;1.10;;
73100;SDS011;61288;53.446;-2.266;2024-03-22T01:01:13;6.20;;;1.38;;
73100;SDS011;61288;53.446;-2.266;2024-03-22T01:03:39;2.00;;;1.00;;
73100;SDS011;61288;53.446;-2.266;2024-03-22T01:06:04;3.70;;;1.20;;
73100;SDS011;61288;53.446;-2.266;2024-03-22T01:08:30;2.55;;;0.90;;
73100;SDS011;61288;53.446;-2.266;2024-03-22T01:10:55;5.10;;;1.00;;
73100;SDS011;61288;53.446;-2.266;2024-03-22T01:13:21;3.50;;;1.10;;
73100;SDS011;61288;53.446;-2.266;2024-03-22T01:15:46;3.22;;;0.90;;
73100;SDS011;61288;53.446;-2.266;2024-03-22T01:18:12;2.03;;;0.82;;
73100;SDS011;61288;53.446;-2.266;2024-03-22T01:20:38;2.30;;;0.88;;
73100;SDS011;61288;53.446;-2.266;2024-03-22T01:23:03;2.15;;;1.00;;
73100;SDS011;61288;53.446;-2.266;2024-03-22T01:25:29;1.27;;;1.00;;
73100;SDS011;61288;53.446;-2.266;2024-03-22T01:27:55;6.93;;;1.20;;
73100;SDS011;61288;53.446;-2.266;2024-03-22T01:30:21;2.40;;;1.00;;
73100;SDS011;61288;53.446;-2.266;2024-03-22T01:32:47;4.40;;;1.35;;
73100;SDS011;61288;53.446;-2.266;2024-03-22T01:35:13;3.03;;;0.93;;
73100;SDS011;61288;53.446;-2.266;2024-03-22T01:37:38;4.18;;;1.27;;
73100;SDS011;61288;53.446;-2.266;2024-03-22T01:40:04;3.53;;;1.30;;
73100;SDS011;61288;53.446;-2.266;2024-03-22T01:42:33;4.50;;;1.60;;
73100;SDS011;61288;53.446;-2.266;2024-03-22T01:44:59;4.50;;;1.40;;
73100;SDS011;61288;53.446;-2.266;2024-03-22T01:47:24;8.95;;;1.70;;
73100;SDS011;61288;53.446;-2.266;2024-03-22T01:49:50;9.50;;;2.22;;
73100;SDS011;61288;53.446;-2.266;2024-03-22T01:52:17;8.27;;;1.73;;
73100;SDS011;61288;53.446;-2.266;2024-03-22T01:54:43;11.75;;;1.70;;
73100;SDS011;61288;53.446;-2.266;2024-03-22T01:57:09;7.47;;;1.50;;
73100;SDS011;61288;53.446;-2.266;2024-03-22T01:59:35;7.20;;;1.80;;
73100;SDS011;61288;53.446;-2.266;2024-03-22T02:02:00;8.02;;;1.40;;
73100;SDS011;61288;53.446;-2.266;2024-03-22T02:04:27;7.80;;;1.80;;
73100;SDS011;61288;53.446;-2.266;2024-03-22T02:06:53;8.85;;;1.92;;
73100;SDS011;61288;53.446;-2.266;2024-03-22T02:09:18;7.55;;;1.50;;
73100;SDS011;61288;53.446;-2.266;2024-03-22T02:11:47;9.10;;;2.05;;
73100;SDS011;61288;53.446;-2.266;2024-03-22T02:14:13;9.80;;;1.92;;
73100;SDS011;61288;53.446;-2.266;2024-03-22T02:16:42;8.43;;;1.95;;
73100;SDS011;61288;53.446;-2.266;2024-03-22T02:19:07;9.25;;;1.90;;
73100;SDS011;61288;53.446;-2.266;2024-03-22T02:21:34;9.43;;;1.73;;
73100;SDS011;61288;53.446;-2.266;2024-03-22T02:24:05;10.90;;;2.13;;
73100;SDS011;61288;53.446;-2.266;2024-03-22T02:26:31;9.32;;;2.10;;
73100;SDS011;61288;53.446;-2.266;2024-03-22T02:28:57;12.15;;;3.38;;
73100;SDS011;61288;53.446;-2.266;2024-03-22T02:31:22;11.60;;;2.40;;
73100;SDS011;61288;53.446;-2.266;2024-03-22T02:33:52;10.45;;;2.40;;
73100;SDS011;61288;53.446;-2.266;2024-03-22T02:36:17;11.00;;;2.28;;
73100;SDS011;61288;53.446;-2.266;2024-03-22T02:38:43;11.88;;;2.47;;
73100;SDS011;61288;53.446;-2.266;2024-03-22T02:41:08;8.85;;;2.10;;
73100;SDS011;61288;53.446;-2.266;2024-03-22T02:43:34;7.32;;;1.70;;
73100;SDS011;61288;53.446;-2.266;2024-03-22T02:46:02;10.95;;;2.63;;
73100;SDS011;61288;53.446;-2.266;2024-03-22T02:48:28;11.15;;;2.13;;
73100;SDS011;61288;53.446;-2.266;2024-03-22T02:50:57;8.38;;;1.95;;
73100;SDS011;61288;53.446;-2.266;2024-03-22T02:53:22;10.82;;;1.90;;
73100;SDS011;61288;53.446;-2.266;2024-03-22T02:55:51;8.25;;;1.98;;
73100;SDS011;61288;53.446;-2.266;2024-03-22T02:58:20;12.60;;;2.00;;
73100;SDS011;61288;53.446;-2.266;2024-03-22T03:00:46;11.32;;;1.83;;
73100;SDS011;61288;53.446;-2.266;2024-03-22T03:03:22;7.78;;;1.77;;
73100;SDS011;61288;53.446;-2.266;2024-03-22T03:05:48;11.15;;;1.80;;
73100;SDS011;61288;53.446;-2.266;2024-03-22T03:08:13;11.82;;;1.98;;
73100;SDS011;61288;53.446;-2.266;2024-03-22T03:10:39;9.07;;;1.98;;
73100;SDS011;61288;53.446;-2.266;2024-03-22T03:13:04;9.73;;;1.92;;
73100;SDS011;61288;53.446;-2.266;2024-03-22T03:15:33;11.52;;;2.03;;
73100;SDS011;61288;53.446;-2.266;2024-03-22T03:17:58;7.40;;;2.08;;
73100;SDS011;61288;53.446;-2.266;2024-03-22T03:20:24;10.23;;;1.90;;
73100;SDS011;61288;53.446;-2.266;2024-03-22T03:22:50;10.15;;;1.70;;
73100;SDS011;61288;53.446;-2.266;2024-03-22T03:25:16;12.60;;;2.05;;
73100;SDS011;61288;53.446;-2.266;2024-03-22T03:27:41;13.93;;;2.17;;
73100;SDS011;61288;53.446;-2.266;2024-03-22T03:30:08;9.70;;;2.40;;
73100;SDS011;61288;53.446;-2.266;2024-03-22T03:32:35;10.13;;;2.30;;
73100;SDS011;61288;53.446;-2.266;2024-03-22T03:35:01;12.43;;;2.42;;
73100;SDS011;61288;53.446;-2.266;2024-03-22T03:37:27;11.57;;;1.88;;
73100;SDS011;61288;53.446;-2.266;2024-03-22T03:39:52;10.18;;;1.70;;
73100;SDS011;61288;53.446;-2.266;2024-03-22T03:42:18;10.98;;;2.00;;
73100;SDS011;61288;53.446;-2.266;2024-03-22T03:44:43;14.50;;;1.90;;
73100;SDS011;61288;53.446;-2.266;2024-03-22T03:47:09;14.02;;;2.65;;
73100;SDS011;61288;53.446;-2.266;2024-03-22T03:49:34;16.85;;;2.65;;
73100;SDS011;61288;53.446;-2.266;2024-03-22T03:52:00;12.15;;;2.22;;
73100;SDS011;61288;53.446;-2.266;2024-03-22T03:54:25;16.30;;;2.25;;
73100;SDS011;61288;53.446;-2.266;2024-03-22T03:56:51;16.10;;;2.65;;
73100;SDS011;61288;53.446;-2.266;2024-03-22T03:59:17;15.52;;;2.40;;
73100;SDS011;61288;53.446;-2.266;2024-03-22T04:01:42;13.60;;;2.58;;
73100;SDS011;61288;53.446;-2.266;2024-03-22T04:04:08;17.08;;;2.53;;
73100;SDS011;61288;53.446;-2.266;2024-03-22T04:06:33;12.45;;;2.42;;
73100;SDS011;61288;53.446;-2.266;2024-03-22T04:08:59;20.35;;;3.30;;
73100;SDS011;61288;53.446;-2.266;2024-03-22T04:11:25;19.60;;;3.42;;
73100;SDS011;61288;53.446;-2.266;2024-03-22T04:13:51;16.50;;;2.35;;
73100;SDS011;61288;53.446;-2.266;2024-03-22T04:16:16;23.65;;;2.58;;
73100;SDS011;61288;53.446;-2.266;2024-03-22T04:18:42;21.48;;;2.90;;
73100;SDS011;61288;53.446;-2.266;2024-03-22T04:21:07;19.95;;;3.45;;
73100;SDS011;61288;53.446;-2.266;2024-03-22T04:23:33;21.70;;;3.30;;
73100;SDS011;61288;53.446;-2.266;2024-03-22T04:25:59;26.92;;;5.13;;
73100;SDS011;61288;53.446;-2.266;2024-03-22T04:28:26;23.30;;;3.25;;
73100;SDS011;61288;53.446;-2.266;2024-03-22T04:31:02;27.33;;;4.90;;
73100;SDS011;61288;53.446;-2.266;2024-03-22T04:33:37;22.67;;;3.30;;
73100;SDS011;61288;53.446;-2.266;2024-03-22T04:36:03;22.77;;;3.15;;
73100;SDS011;61288;53.446;-2.266;2024-03-22T04:38:29;18.85;;;2.60;;
73100;SDS011;61288;53.446;-2.266;2024-03-22T04:40:55;18.02;;;2.85;;
73100;SDS011;61288;53.446;-2.266;2024-03-22T04:43:23;20.73;;;3.70;;
73100;SDS011;61288;53.446;-2.266;2024-03-22T04:45:49;26.63;;;4.10;;
73100;SDS011;61288;53.446;-2.266;2024-03-22T04:48:19;20.73;;;2.70;;
73100;SDS011;61288;53.446;-2.266;2024-03-22T04:50:50;26.10;;;3.20;;
73100;SDS011;61288;53.446;-2.266;2024-03-22T04:53:17;22.63;;;3.63;;
73100;SDS011;61288;53.446;-2.266;2024-03-22T04:55:43;22.17;;;3.70;;
73100;SDS011;61288;53.446;-2.266;2024-03-22T04:58:19;28.92;;;3.00;;
73100;SDS011;61288;53.446;-2.266;2024-03-22T05:00:46;20.15;;;3.20;;
73100;SDS011;61288;53.446;-2.266;2024-03-22T05:03:13;23.20;;;3.17;;
73100;SDS011;61288;53.446;-2.266;2024-03-22T05:05:40;27.73;;;4.07;;
73100;SDS011;61288;53.446;-2.266;2024-03-22T05:08:05;23.27;;;4.13;;
73100;SDS011;61288;53.446;-2.266;2024-03-22T05:10:32;25.50;;;3.97;;
73100;SDS011;61288;53.446;-2.266;2024-03-22T05:12:57;22.55;;;3.60;;
73100;SDS011;61288;53.446;-2.266;2024-03-22T05:15:23;25.35;;;3.53;;
73100;SDS011;61288;53.446;-2.266;2024-03-22T05:17:53;21.10;;;3.65;;
73100;SDS011;61288;53.446;-2.266;2024-03-22T05:20:19;27.08;;;4.30;;
73100;SDS011;61288;53.446;-2.266;2024-03-22T05:22:47;26.73;;;4.25;;
73100;SDS011;61288;53.446;-2.266;2024-03-22T05:25:13;24.02;;;3.42;;
73100;SDS011;61288;53.446;-2.266;2024-03-22T05:27:40;20.63;;;3.13;;
73100;SDS011;61288;53.446;-2.266;2024-03-22T05:30:07;27.15;;;4.00;;
73100;SDS011;61288;53.446;-2.266;2024-03-22T05:32:33;19.90;;;3.33;;
73100;SDS011;61288;53.446;-2.266;2024-03-22T05:34:58;31.00;;;4.10;;
73100;SDS011;61288;53.446;-2.266;2024-03-22T05:37:24;30.77;;;3.83;;
73100;SDS011;61288;53.446;-2.266;2024-03-22T05:39:49;23.45;;;3.35;;
73100;SDS011;61288;53.446;-2.266;2024-03-22T05:42:15;28.10;;;3.80;;
73100;SDS011;61288;53.446;-2.266;2024-03-22T05:44:40;29.13;;;4.18;;
73100;SDS011;61288;53.446;-2.266;2024-03-22T05:47:09;25.58;;;3.80;;
73100;SDS011;61288;53.446;-2.266;2024-03-22T05:49:34;27.77;;;4.03;;
73100;SDS011;61288;53.446;-2.266;2024-03-22T05:52:03;32.90;;;3.92;;
73100;SDS011;61288;53.446;-2.266;2024-03-22T05:54:28;26.38;;;4.00;;
73100;SDS011;61288;53.446;-2.266;2024-03-22T05:56:55;31.80;;;4.22;;
73100;SDS011;61288;53.446;-2.266;2024-03-22T05:59:21;32.03;;;3.83;;
73100;SDS011;61288;53.446;-2.266;2024-03-22T06:01:47;32.80;;;3.95;;
73100;SDS011;61288;53.446;-2.266;2024-03-22T06:04:12;29.85;;;4.40;;
73100;SDS011;61288;53.446;-2.266;2024-03-22T06:06:38;28.67;;;4.13;;
73100;SDS011;61288;53.446;-2.266;2024-03-22T06:09:03;27.58;;;4.13;;
73100;SDS011;61288;53.446;-2.266;2024-03-22T06:11:32;24.80;;;3.80;;
73100;SDS011;61288;53.446;-2.266;2024-03-22T06:13:57;22.98;;;3.45;;
73100;SDS011;61288;53.446;-2.266;2024-03-22T06:16:23;25.85;;;3.33;;
73100;SDS011;61288;53.446;-2.266;2024-03-22T06:18:48;26.05;;;3.42;;
73100;SDS011;61288;53.446;-2.266;2024-03-22T06:21:20;27.75;;;4.93;;
73100;SDS011;61288;53.446;-2.266;2024-03-22T06:23:50;23.08;;;3.47;;
73100;SDS011;61288;53.446;-2.266;2024-03-22T06:26:16;26.45;;;3.67;;
73100;SDS011;61288;53.446;-2.266;2024-03-22T06:28:41;30.38;;;4.20;;
73100;SDS011;61288;53.446;-2.266;2024-03-22T06:31:07;34.45;;;4.25;;
73100;SDS011;61288;53.446;-2.266;2024-03-22T06:33:33;24.05;;;4.10;;
73100;SDS011;61288;53.446;-2.266;2024-03-22T06:35:58;30.77;;;3.72;;
73100;SDS011;61288;53.446;-2.266;2024-03-22T06:38:23;24.05;;;3.67;;
73100;SDS011;61288;53.446;-2.266;2024-03-22T06:40:49;29.02;;;3.63;;
73100;SDS011;61288;53.446;-2.266;2024-03-22T06:43:14;27.55;;;3.75;;
73100;SDS011;61288;53.446;-2.266;2024-03-22T06:45:40;24.05;;;3.83;;
73100;SDS011;61288;53.446;-2.266;2024-03-22T06:48:06;24.83;;;3.85;;
73100;SDS011;61288;53.446;-2.266;2024-03-22T06:50:31;23.00;;;3.65;;
73100;SDS011;61288;53.446;-2.266;2024-03-22T06:52:57;26.55;;;3.28;;
73100;SDS011;61288;53.446;-2.266;2024-03-22T06:55:22;31.98;;;4.78;;
73100;SDS011;61288;53.446;-2.266;2024-03-22T06:57:48;24.30;;;3.63;;
73100;SDS011;61288;53.446;-2.266;2024-03-22T07:00:18;27.63;;;3.35;;
73100;SDS011;61288;53.446;-2.266;2024-03-22T07:02:44;19.13;;;3.67;;
73100;SDS011;61288;53.446;-2.266;2024-03-22T07:05:09;20.95;;;3.28;;
73100;SDS011;61288;53.446;-2.266;2024-03-22T07:07:35;32.33;;;4.38;;
73100;SDS011;61288;53.446;-2.266;2024-03-22T07:10:02;24.67;;;3.35;;
73100;SDS011;61288;53.446;-2.266;2024-03-22T07:12:28;29.15;;;3.92;;
73100;SDS011;61288;53.446;-2.266;2024-03-22T07:14:54;28.10;;;3.78;;
73100;SDS011;61288;53.446;-2.266;2024-03-22T07:17:21;27.13;;;4.57;;
73100;SDS011;61288;53.446;-2.266;2024-03-22T07:19:51;29.85;;;3.78;;
73100;SDS011;61288;53.446;-2.266;2024-03-22T07:22:18;26.25;;;4.03;;
73100;SDS011;61288;53.446;-2.266;2024-03-22T07:24:44;27.27;;;3.97;;
73100;SDS011;61288;53.446;-2.266;2024-03-22T07:27:10;27.40;;;3.83;;
73100;SDS011;61288;53.446;-2.266;2024-03-22T07:29:35;23.42;;;3.25;;
73100;SDS011;61288;53.446;-2.266;2024-03-22T07:32:01;29.65;;;4.18;;
73100;SDS011;61288;53.446;-2.266;2024-03-22T07:34:26;37.38;;;3.92;;
73100;SDS011;61288;53.446;-2.266;2024-03-22T07:36:52;27.48;;;3.40;;
73100;SDS011;61288;53.446;-2.266;2024-03-22T07:39:18;18.38;;;3.75;;
73100;SDS011;61288;53.446;-2.266;2024-03-22T07:41:44;22.13;;;3.50;;
73100;SDS011;61288;53.446;-2.266;2024-03-22T07:44:09;25.83;;;4.55;;
73100;SDS011;61288;53.446;-2.266;2024-03-22T07:46:36;24.50;;;3.60;;
73100;SDS011;61288;53.446;-2.266;2024-03-22T07:49:01;23.95;;;4.30;;
73100;SDS011;61288;53.446;-2.266;2024-03-22T07:51:29;27.55;;;3.45;;
73100;SDS011;61288;53.446;-2.266;2024-03-22T07:53:55;28.45;;;4.28;;
73100;SDS011;61288;53.446;-2.266;2024-03-22T07:56:20;33.28;;;4.28;;
73100;SDS011;61288;53.446;-2.266;2024-03-22T07:58:46;27.60;;;3.83;;
73100;SDS011;61288;53.446;-2.266;2024-03-22T08:01:12;30.45;;;4.22;;
73100;SDS011;61288;53.446;-2.266;2024-03-22T08:03:37;19.60;;;3.53;;
73100;SDS011;61288;53.446;-2.266;2024-03-22T08:06:03;25.58;;;4.28;;
73100;SDS011;61288;53.446;-2.266;2024-03-22T08:08:31;22.98;;;3.63;;
73100;SDS011;61288;53.446;-2.266;2024-03-22T08:10:59;18.25;;;3.38;;
73100;SDS011;61288;53.446;-2.266;2024-03-22T08:13:25;24.27;;;3.45;;
73100;SDS011;61288;53.446;-2.266;2024-03-22T08:15:50;21.35;;;3.22;;
73100;SDS011;61288;53.446;-2.266;2024-03-22T08:18:15;22.05;;;3.45;;
73100;SDS011;61288;53.446;-2.266;2024-03-22T08:20:42;24.67;;;3.20;;
73100;SDS011;61288;53.446;-2.266;2024-03-22T08:23:08;19.15;;;2.83;;
73100;SDS011;61288;53.446;-2.266;2024-03-22T08:25:34;25.85;;;3.50;;
73100;SDS011;61288;53.446;-2.266;2024-03-22T08:28:00;28.95;;;5.20;;
73100;SDS011;61288;53.446;-2.266;2024-03-22T08:30:25;20.52;;;3.28;;
73100;SDS011;61288;53.446;-2.266;2024-03-22T08:32:51;23.17;;;3.05;;
73100;SDS011;61288;53.446;-2.266;2024-03-22T08:35:17;20.38;;;2.72;;
73100;SDS011;61288;53.446;-2.266;2024-03-22T08:37:44;18.23;;;3.53;;
73100;SDS011;61288;53.446;-2.266;2024-03-22T08:40:13;18.67;;;2.72;;
73100;SDS011;61288;53.446;-2.266;2024-03-22T08:42:39;19.42;;;4.35;;
73100;SDS011;61288;53.446;-2.266;2024-03-22T08:45:05;18.88;;;2.97;;
73100;SDS011;61288;53.446;-2.266;2024-03-22T08:47:30;24.42;;;4.20;;
73100;SDS011;61288;53.446;-2.266;2024-03-22T08:49:58;21.40;;;3.28;;
73100;SDS011;61288;53.446;-2.266;2024-03-22T08:52:24;19.65;;;2.90;;
73100;SDS011;61288;53.446;-2.266;2024-03-22T08:54:52;20.35;;;3.58;;
73100;SDS011;61288;53.446;-2.266;2024-03-22T08:57:18;16.83;;;2.60;;
73100;SDS011;61288;53.446;-2.266;2024-03-22T08:59:44;26.70;;;3.33;;
73100;SDS011;61288;53.446;-2.266;2024-03-22T09:02:10;24.58;;;3.17;;
73100;SDS011;61288;53.446;-2.266;2024-03-22T09:04:39;19.95;;;3.05;;
73100;SDS011;61288;53.446;-2.266;2024-03-22T09:07:06;16.98;;;2.58;;
73100;SDS011;61288;53.446;-2.266;2024-03-22T09:09:32;13.85;;;2.78;;
73100;SDS011;61288;53.446;-2.266;2024-03-22T09:11:58;22.65;;;3.28;;
73100;SDS011;61288;53.446;-2.266;2024-03-22T09:14:23;15.60;;;2.55;;
73100;SDS011;61288;53.446;-2.266;2024-03-22T09:16:49;16.13;;;2.63;;
73100;SDS011;61288;53.446;-2.266;2024-03-22T09:19:14;13.93;;;2.88;;
73100;SDS011;61288;53.446;-2.266;2024-03-22T09:21:40;16.77;;;2.88;;
73100;SDS011;61288;53.446;-2.266;2024-03-22T09:24:05;12.10;;;2.47;;
73100;SDS011;61288;53.446;-2.266;2024-03-22T09:26:32;15.07;;;2.10;;
73100;SDS011;61288;53.446;-2.266;2024-03-22T09:28:58;13.38;;;2.70;;
73100;SDS011;61288;53.446;-2.266;2024-03-22T09:31:24;11.73;;;2.00;;
73100;SDS011;61288;53.446;-2.266;2024-03-22T09:33:49;14.48;;;2.25;;
73100;SDS011;61288;53.446;-2.266;2024-03-22T09:36:15;13.43;;;2.05;;
73100;SDS011;61288;53.446;-2.266;2024-03-22T09:38:40;12.50;;;1.80;;
73100;SDS011;61288;53.446;-2.266;2024-03-22T09:41:06;13.45;;;2.63;;
73100;SDS011;61288;53.446;-2.266;2024-03-22T09:43:32;17.00;;;2.42;;
73100;SDS011;61288;53.446;-2.266;2024-03-22T09:46:02;15.30;;;2.78;;
73100;SDS011;61288;53.446;-2.266;2024-03-22T09:48:28;18.77;;;2.47;;
73100;SDS011;61288;53.446;-2.266;2024-03-22T09:50:54;15.30;;;2.10;;
73100;SDS011;61288;53.446;-2.266;2024-03-22T09:53:20;17.00;;;2.15;;
73100;SDS011;61288;53.446;-2.266;2024-03-22T09:55:50;15.77;;;2.58;;
73100;SDS011;61288;53.446;-2.266;2024-03-22T09:58:23;16.65;;;2.42;;
73100;SDS011;61288;53.446;-2.266;2024-03-22T10:00:48;13.63;;;2.17;;
73100;SDS011;61288;53.446;-2.266;2024-03-22T10:03:16;13.35;;;2.10;;
73100;SDS011;61288;53.446;-2.266;2024-03-22T10:05:41;15.43;;;2.70;;
73100;SDS011;61288;53.446;-2.266;2024-03-22T10:08:07;13.60;;;2.05;;
73100;SDS011;61288;53.446;-2.266;2024-03-22T10:10:32;8.27;;;1.77;;
73100;SDS011;61288;53.446;-2.266;2024-03-22T10:13:04;16.67;;;2.13;;
73100;SDS011;61288;53.446;-2.266;2024-03-22T10:15:32;11.88;;;2.17;;
73100;SDS011;61288;53.446;-2.266;2024-03-22T10:17:58;10.30;;;2.10;;
73100;SDS011;61288;53.446;-2.266;2024-03-22T10:20:23;14.50;;;2.85;;
73100;SDS011;61288;53.446;-2.266;2024-03-22T10:22:58;14.68;;;1.95;;
73100;SDS011;61288;53.446;-2.266;2024-03-22T10:25:27;14.63;;;2.15;;
73100;SDS011;61288;53.446;-2.266;2024-03-22T10:27:54;16.65;;;2.45;;
73100;SDS011;61288;53.446;-2.266;2024-03-22T10:30:20;11.18;;;1.83;;
73100;SDS011;61288;53.446;-2.266;2024-03-22T10:32:46;11.40;;;2.22;;
73100;SDS011;61288;53.446;-2.266;2024-03-22T10:35:16;15.13;;;2.10;;
73100;SDS011;61288;53.446;-2.266;2024-03-22T10:37:42;13.13;;;2.33;;
73100;SDS011;61288;53.446;-2.266;2024-03-22T10:40:09;11.98;;;2.00;;
73100;SDS011;61288;53.446;-2.266;2024-03-22T10:42:37;14.15;;;2.13;;
73100;SDS011;61288;53.446;-2.266;2024-03-22T10:45:04;11.48;;;2.58;;
73100;SDS011;61288;53.446;-2.266;2024-03-22T10:47:31;12.90;;;2.15;;
73100;SDS011;61288;53.446;-2.266;2024-03-22T10:50:13;11.60;;;2.30;;
73100;SDS011;61288;53.446;-2.266;2024-03-22T10:52:51;15.02;;;2.35;;
73100;SDS011;61288;53.446;-2.266;2024-03-22T10:55:24;13.82;;;2.28;;
73100;SDS011;61288;53.446;-2.266;2024-03-22T11:00:29;10.85;;;1.70;;
73100;SDS011;61288;53.446;-2.266;2024-03-22T11:02:59;11.15;;;2.10;;
73100;SDS011;61288;53.446;-2.266;2024-03-22T11:05:29;10.93;;;1.98;;
73100;SDS011;61288;53.446;-2.266;2024-03-22T11:08:00;8.00;;;1.60;;
73100;SDS011;61288;53.446;-2.266;2024-03-22T11:10:35;11.95;;;2.17;;
73100;SDS011;61288;53.446;-2.266;2024-03-22T11:13:04;15.52;;;2.45;;
73100;SDS011;61288;53.446;-2.266;2024-03-22T11:15:34;12.82;;;2.08;;
73100;SDS011;61288;53.446;-2.266;2024-03-22T11:18:00;16.80;;;2.35;;
73100;SDS011;61288;53.446;-2.266;2024-03-22T11:20:26;10.00;;;1.95;;
73100;SDS011;61288;53.446;-2.266;2024-03-22T11:22:52;9.85;;;2.00;;
73100;SDS011;61288;53.446;-2.266;2024-03-22T11:25:18;11.52;;;2.10;;
73100;SDS011;61288;53.446;-2.266;2024-03-22T11:27:44;10.15;;;1.80;;
73100;SDS011;61288;53.446;-2.266;2024-03-22T11:30:10;15.18;;;2.75;;
73100;SDS011;61288;53.446;-2.266;2024-03-22T11:32:36;15.32;;;2.35;;
73100;SDS011;61288;53.446;-2.266;2024-03-22T11:35:11;11.60;;;2.10;;
73100;SDS011;61288;53.446;-2.266;2024-03-22T11:37:38;10.90;;;2.03;;
73100;SDS011;61288;53.446;-2.266;2024-03-22T11:40:05;12.02;;;1.98;;
73100;SDS011;61288;53.446;-2.266;2024-03-22T11:42:41;10.45;;;1.90;;
73100;SDS011;61288;53.446;-2.266;2024-03-22T11:45:14;11.43;;;1.92;;
73100;SDS011;61288;53.446;-2.266;2024-03-22T11:47:43;14.15;;;2.10;;
73100;SDS011;61288;53.446;-2.266;2024-03-22T11:50:10;10.60;;;2.55;;
73100;SDS011;61288;53.446;-2.266;2024-03-22T11:52:42;11.00;;;1.70;;
73100;SDS011;61288;53.446;-2.266;2024-03-22T11:55:11;13.40;;;2.20;;
73100;SDS011;61288;53.446;-2.266;2024-03-22T11:57:37;17.65;;;2.35;;
73100;SDS011;61288;53.446;-2.266;2024-03-22T12:00:03;10.75;;;1.80;;
73100;SDS011;61288;53.446;-2.266;2024-03-22T12:02:35;9.57;;;2.38;;
73100;SDS011;61288;53.446;-2.266;2024-03-22T12:05:01;10.20;;;1.90;;
73100;SDS011;61288;53.446;-2.266;2024-03-22T12:07:28;10.30;;;2.08;;
73100;SDS011;61288;53.446;-2.266;2024-03-22T12:09:53;12.05;;;2.05;;
73100;SDS011;61288;53.446;-2.266;2024-03-22T12:12:20;11.20;;;2.20;;
73100;SDS011;61288;53.446;-2.266;2024-03-22T12:14:47;10.15;;;1.90;;
73100;SDS011;61288;53.446;-2.266;2024-03-22T12:17:12;16.55;;;2.38;;
73100;SDS011;61288;53.446;-2.266;2024-03-22T12:19:38;11.70;;;2.03;;
73100;SDS011;61288;53.446;-2.266;2024-03-22T12:22:03;12.93;;;2.22;;
73100;SDS011;61288;53.446;-2.266;2024-03-22T12:24:33;7.00;;;1.55;;
73100;SDS011;61288;53.446;-2.266;2024-03-22T12:26:59;11.38;;;1.73;;
73100;SDS011;61288;53.446;-2.266;2024-03-22T12:29:24;15.10;;;2.50;;
73100;SDS011;61288;53.446;-2.266;2024-03-22T12:31:50;14.15;;;2.50;;
73100;SDS011;61288;53.446;-2.266;2024-03-22T12:34:16;11.20;;;1.80;;
73100;SDS011;61288;53.446;-2.266;2024-03-22T12:36:42;14.07;;;2.03;;
73100;SDS011;61288;53.446;-2.266;2024-03-22T12:39:08;12.70;;;2.20;;
73100;SDS011;61288;53.446;-2.266;2024-03-22T12:41:33;10.80;;;1.60;;
73100;SDS011;61288;53.446;-2.266;2024-03-22T12:44:00;11.77;;;2.17;;
73100;SDS011;61288;53.446;-2.266;2024-03-22T12:46:26;17.35;;;2.20;;
73100;SDS011;61288;53.446;-2.266;2024-03-22T12:48:55;12.00;;;2.20;;
73100;SDS011;61288;53.446;-2.266;2024-03-22T12:51:20;15.13;;;2.10;;
73100;SDS011;61288;53.446;-2.266;2024-03-22T12:53:46;14.38;;;1.92;;
73100;SDS011;61288;53.446;-2.266;2024-03-22T12:56:16;14.65;;;2.55;;
73100;SDS011;61288;53.446;-2.266;2024-03-22T12:58:42;15.10;;;2.05;;
73100;SDS011;61288;53.446;-2.266;2024-03-22T13:01:08;14.27;;;2.58;;
73100;SDS011;61288;53.446;-2.266;2024-03-22T13:03:36;20.65;;;2.63;;
73100;SDS011;61288;53.446;-2.266;2024-03-22T13:06:03;11.98;;;1.95;;
73100;SDS011;61288;53.446;-2.266;2024-03-22T13:08:30;14.20;;;2.55;;
73100;SDS011;61288;53.446;-2.266;2024-03-22T13:11:01;12.13;;;1.90;;
73100;SDS011;61288;53.446;-2.266;2024-03-22T13:13:27;12.70;;;2.08;;
73100;SDS011;61288;53.446;-2.266;2024-03-22T13:15:52;10.93;;;1.80;;
73100;SDS011;61288;53.446;-2.266;2024-03-22T13:18:18;15.32;;;2.58;;
73100;SDS011;61288;53.446;-2.266;2024-03-22T13:20:46;14.73;;;2.42;;
73100;SDS011;61288;53.446;-2.266;2024-03-22T13:23:12;13.20;;;2.13;;
73100;SDS011;61288;53.446;-2.266;2024-03-22T13:25:43;14.23;;;1.92;;
73100;SDS011;61288;53.446;-2.266;2024-03-22T13:28:09;12.57;;;2.50;;
73100;SDS011;61288;53.446;-2.266;2024-03-22T13:30:35;13.02;;;2.00;;
73100;SDS011;61288;53.446;-2.266;2024-03-22T13:33:04;11.80;;;2.05;;
73100;SDS011;61288;53.446;-2.266;2024-03-22T13:35:29;16.33;;;2.47;;
73100;SDS011;61288;53.446;-2.266;2024-03-22T13:37:55;15.77;;;2.00;;
73100;SDS011;61288;53.446;-2.266;2024-03-22T13:40:21;10.68;;;2.08;;
73100;SDS011;61288;53.446;-2.266;2024-03-22T13:42:53;13.20;;;2.40;;
73100;SDS011;61288;53.446;-2.266;2024-03-22T13:45:19;14.80;;;2.10;;
73100;SDS011;61288;53.446;-2.266;2024-03-22T13:47:45;11.05;;;2.10;;
73100;SDS011;61288;53.446;-2.266;2024-03-22T13:50:10;15.52;;;2.30;;
73100;SDS011;61288;53.446;-2.266;2024-03-22T13:52:37;11.00;;;2.05;;
73100;SDS011;61288;53.446;-2.266;2024-03-22T13:55:03;11.32;;;1.85;;
73100;SDS011;61288;53.446;-2.266;2024-03-22T13:57:29;18.73;;;2.92;;
73100;SDS011;61288;53.446;-2.266;2024-03-22T13:59:55;14.77;;;2.03;;
73100;SDS011;61288;53.446;-2.266;2024-03-22T14:02:21;15.30;;;2.22;;
73100;SDS011;61288;53.446;-2.266;2024-03-22T14:04:46;15.40;;;2.17;;
73100;SDS011;61288;53.446;-2.266;2024-03-22T14:07:12;14.73;;;2.05;;
73100;SDS011;61288;53.446;-2.266;2024-03-22T14:09:38;13.48;;;2.35;;
73100;SDS011;61288;53.446;-2.266;2024-03-22T14:12:08;14.85;;;2.25;;
73100;SDS011;61288;53.446;-2.266;2024-03-22T14:14:33;12.95;;;2.30;;
73100;SDS011;61288;53.446;-2.266;2024-03-22T14:16:59;13.73;;;2.20;;
73100;SDS011;61288;53.446;-2.266;2024-03-22T14:19:24;16.05;;;2.30;;
73100;SDS011;61288;53.446;-2.266;2024-03-22T14:21:50;11.65;;;2.65;;